createdAt,value
2022-08-17T00:01:52.171Z,41.23
2022-08-17T00:04:21.267Z,40.71
2022-08-17T00:06:49.903Z,41.24
2022-08-17T00:09:18.904Z,41.48
2022-08-17T00:12:34.831Z,41.81
2022-08-17T00:14:35.667Z,42.52
2022-08-17T00:17:02.376Z,42.26
2022-08-17T00:19:29.454Z,42.42
2022-08-17T00:22:31.938Z,42.35
2022-08-17T00:24:47.079Z,42.02
2022-08-17T00:27:13.725Z,42.28
2022-08-17T00:29:40.519Z,42.04
2022-08-17T00:33:11.985Z,41.89
2022-08-17T00:34:54.382Z,42.48
2022-08-17T00:37:22.813Z,42.34
2022-08-17T00:39:51.611Z,42.36
2022-08-17T00:42:19.599Z,42.04
2022-08-17T00:44:50.583Z,41.63
2022-08-17T00:47:24.657Z,42.07
2022-08-17T00:49:51.552Z,41.92
2022-08-17T00:52:22.429Z,42.52
2022-08-17T00:54:54.695Z,41.82
2022-08-17T00:57:24.913Z,42.48
2022-08-17T01:00:02.520Z,42.66
2022-08-17T01:02:35.010Z,42.38
2022-08-17T01:05:17.169Z,42.07
2022-08-17T01:07:47.721Z,42.42
2022-08-17T01:10:59.224Z,42.50
2022-08-17T01:13:08.012Z,43.06
2022-08-17T01:15:40.027Z,42.99
2022-08-17T01:18:09.913Z,42.49
2022-08-17T01:20:48.604Z,43.50
2022-08-17T01:23:20.770Z,43.39
2022-08-17T01:25:49.867Z,43.50
2022-08-17T01:28:33.330Z,43.75
2022-08-17T01:31:07.009Z,43.77
2022-08-17T01:33:34.397Z,44.00
2022-08-17T01:36:00.994Z,43.96
2022-08-17T01:38:29.024Z,44.03
2022-08-17T01:41:00.447Z,43.63
2022-08-17T01:43:31.199Z,43.44
2022-08-17T01:46:02.728Z,43.49
2022-08-17T01:48:36.489Z,43.46
2022-08-17T01:51:03.448Z,43.25
2022-08-17T01:53:35.373Z,43.05
2022-08-17T01:56:07.839Z,43.32
2022-08-17T01:58:36.001Z,43.56
2022-08-17T02:01:04.599Z,43.38
2022-08-17T02:03:35.499Z,43.77
2022-08-17T02:06:05.787Z,43.40
2022-08-17T02:09:01.483Z,44.31
2022-08-17T02:11:31.594Z,43.77
2022-08-17T02:14:03.328Z,44.42
2022-08-17T02:16:37.652Z,43.92
2022-08-17T02:19:06.603Z,44.46
2022-08-17T02:21:33.324Z,44.19
2022-08-17T02:24:01.768Z,44.35
2022-08-17T02:26:28.525Z,44.65
2022-08-17T02:28:55.385Z,44.43
2022-08-17T02:31:22.070Z,44.80
2022-08-17T02:34:04.005Z,44.68
2022-08-17T02:36:32.220Z,44.69
2022-08-17T02:39:01.681Z,44.85
2022-08-17T02:41:28.431Z,45.02
2022-08-17T02:43:55.040Z,45.03
2022-08-17T02:46:21.693Z,45.56
2022-08-17T02:48:48.493Z,45.11
2022-08-17T02:51:15.169Z,45.57
2022-08-17T02:53:42.281Z,45.36
2022-08-17T02:56:10.560Z,45.46
2022-08-17T02:58:38.546Z,45.09
2022-08-17T03:01:06.427Z,45.53
2022-08-17T03:03:34.650Z,45.31
2022-08-17T03:06:01.590Z,45.36
2022-08-17T03:08:28.895Z,45.00
2022-08-17T03:10:55.732Z,45.08
2022-08-17T03:13:23.989Z,44.94
2022-08-17T03:15:50.746Z,44.77
2022-08-17T03:18:25.051Z,44.44
2022-08-17T03:20:54.542Z,44.48
2022-08-17T03:23:24.396Z,44.47
2022-08-17T03:25:53.249Z,44.64
2022-08-17T03:28:24.373Z,44.33
2022-08-17T03:30:51.744Z,43.90
2022-08-17T03:33:19.402Z,44.09
2022-08-17T03:35:46.912Z,43.99
2022-08-17T03:38:15.181Z,43.96
2022-08-17T03:40:57.160Z,44.30
2022-08-17T03:43:30.432Z,44.31
2022-08-17T03:45:57.735Z,44.42
2022-08-17T03:48:25.223Z,44.12
2022-08-17T03:50:52.501Z,44.25
2022-08-17T03:53:19.239Z,44.51
2022-08-17T03:55:45.937Z,44.06
2022-08-17T03:58:12.599Z,44.43
2022-08-17T04:00:40.679Z,44.31
2022-08-17T04:03:09.085Z,44.70
2022-08-17T04:05:35.827Z,44.76
2022-08-17T04:08:02.740Z,44.39
2022-08-17T04:10:34.013Z,44.70
2022-08-17T04:13:08.132Z,44.46
2022-08-17T04:15:34.738Z,44.73
2022-08-17T04:18:02.783Z,45.11
2022-08-17T04:20:29.587Z,44.47
2022-08-17T04:22:58.806Z,44.56
2022-08-17T04:25:26.343Z,44.64
2022-08-17T04:27:54.598Z,44.63
2022-08-17T04:30:23.288Z,44.33
2022-08-17T04:33:05.050Z,44.06
2022-08-17T04:35:37.364Z,44.03
2022-08-17T04:38:05.217Z,43.90
2022-08-17T04:40:32.625Z,43.31
2022-08-17T04:43:04.370Z,43.40
2022-08-17T04:45:32.413Z,43.60
2022-08-17T04:48:00.504Z,42.95
2022-08-17T04:50:27.210Z,43.28
2022-08-17T04:53:05.821Z,42.75
2022-08-17T04:55:53.420Z,42.83
2022-08-17T04:58:23.277Z,42.73
2022-08-17T05:00:49.959Z,42.46
2022-08-17T05:03:16.575Z,42.29
2022-08-17T05:05:45.290Z,42.45
2022-08-17T05:08:17.607Z,42.15
2022-08-17T05:10:45.494Z,41.78
2022-08-17T05:13:14.433Z,41.70
2022-08-17T05:15:44.826Z,41.57
2022-08-17T05:18:13.084Z,41.10
2022-08-17T05:20:40.698Z,41.10
2022-08-17T05:23:09.388Z,40.92
2022-08-17T05:25:42.287Z,40.67
2022-08-17T05:28:15.038Z,40.66
2022-08-17T05:30:44.008Z,40.70
2022-08-17T05:33:13.023Z,40.55
2022-08-17T05:35:46.040Z,40.29
2022-08-17T05:38:13.216Z,39.78
2022-08-17T05:40:43.708Z,39.48
2022-08-17T05:43:12.573Z,39.17
2022-08-17T05:45:54.351Z,38.67
2022-08-17T05:48:35.495Z,38.36
2022-08-17T05:51:28.029Z,38.03
2022-08-17T05:54:15.757Z,37.65
2022-08-17T05:57:08.500Z,37.28
2022-08-17T05:59:46.153Z,36.96
2022-08-17T06:02:38.726Z,36.98
2022-08-17T06:05:32.140Z,36.42
2022-08-17T06:08:06.774Z,36.48
2022-08-17T06:10:46.924Z,36.55
2022-08-17T06:13:40.820Z,36.95
2022-08-17T06:16:31.173Z,36.38
2022-08-17T06:19:06.680Z,36.36
2022-08-17T06:21:36.005Z,36.79
2022-08-17T06:24:07.065Z,37.16
2022-08-17T06:26:43.308Z,37.97
2022-08-17T06:29:20.025Z,37.76
2022-08-17T06:31:47.068Z,38.00
2022-08-17T06:34:14.155Z,37.52
2022-08-17T06:37:05.307Z,37.99
2022-08-17T06:39:43.179Z,37.84
2022-08-17T06:42:54.943Z,37.53
2022-08-17T06:45:15.800Z,37.64
2022-08-17T06:47:52.940Z,37.40
2022-08-17T06:50:29.564Z,37.06
2022-08-17T06:52:59.552Z,37.41
2022-08-17T06:55:34.533Z,37.06
2022-08-17T06:58:15.923Z,36.46
2022-08-17T07:00:47.567Z,36.60
2022-08-17T07:03:24.056Z,36.50
2022-08-17T07:05:54.740Z,36.36
2022-08-17T07:08:32.028Z,35.81
2022-08-17T07:11:06.159Z,35.87
2022-08-17T07:13:41.959Z,36.23
2022-08-17T07:16:19.947Z,35.98
2022-08-17T07:18:49.791Z,36.08
2022-08-17T07:21:34.509Z,36.33
2022-08-17T07:24:29.390Z,35.63
2022-08-17T07:27:11.560Z,35.61
2022-08-17T07:29:42.860Z,35.73
2022-08-17T07:32:13.927Z,35.73
2022-08-17T07:35:17.659Z,35.30
2022-08-17T07:37:50.221Z,35.18
2022-08-17T07:40:24.304Z,35.91
2022-08-17T07:43:22.375Z,35.32
2022-08-17T07:46:03.942Z,35.25
2022-08-17T07:48:36.339Z,34.67
2022-08-17T07:51:15.171Z,34.73
2022-08-17T07:53:41.838Z,35.22
2022-08-17T07:56:08.699Z,34.47
2022-08-17T07:58:36.680Z,34.37
2022-08-17T08:01:07.652Z,34.11
2022-08-17T08:03:41.289Z,34.32
2022-08-17T08:06:19.891Z,33.92
2022-08-17T08:08:55.844Z,35.74
2022-08-17T08:11:31.214Z,35.20
2022-08-17T08:14:20.387Z,35.38
2022-08-17T08:16:57.904Z,36.11
2022-08-17T08:19:28.348Z,35.62
2022-08-17T08:22:05.398Z,35.53
2022-08-17T08:24:57.328Z,35.91
2022-08-17T08:27:45.762Z,35.57
2022-08-17T08:30:15.957Z,34.77
2022-08-17T08:33:01.482Z,34.47
2022-08-17T08:35:32.989Z,34.28
2022-08-17T08:38:08.762Z,34.15
2022-08-17T08:41:08.154Z,34.16
2022-08-17T08:43:52.796Z,34.01
2022-08-17T08:46:43.201Z,34.25
2022-08-17T08:50:01.867Z,35.66
2022-08-17T08:52:43.711Z,36.01
2022-08-17T08:55:18.330Z,35.97
2022-08-17T08:57:53.959Z,36.44
2022-08-17T09:00:23.318Z,36.83
2022-08-17T09:03:17.302Z,36.54
2022-08-17T09:05:59.317Z,37.10
2022-08-17T09:08:37.094Z,37.55
2022-08-17T09:11:06.325Z,37.04
2022-08-17T09:13:44.342Z,37.64
2022-08-17T09:16:17.925Z,37.07
2022-08-17T09:19:00.068Z,36.24
2022-08-17T09:21:37.383Z,36.79
2022-08-17T09:24:13.956Z,36.87
2022-08-17T09:26:53.298Z,37.19
2022-08-17T09:29:22.454Z,37.36
2022-08-17T09:31:55.347Z,37.55
2022-08-17T09:34:33.150Z,38.01
2022-08-17T09:37:11.021Z,37.90
2022-08-17T09:39:47.034Z,38.94
2022-08-17T09:42:21.349Z,38.96
2022-08-17T09:44:53.888Z,39.22
2022-08-17T09:47:29.796Z,39.13
2022-08-17T09:50:02.894Z,38.92
2022-08-17T09:52:31.156Z,39.38
2022-08-17T09:55:00.397Z,39.68
2022-08-17T09:57:42.116Z,39.15
2022-08-17T10:00:20.609Z,39.63
2022-08-17T10:03:20.164Z,39.57
2022-08-17T10:05:57.221Z,39.91
2022-08-17T10:08:36.630Z,40.75
2022-08-17T10:11:33.500Z,40.69
2022-08-17T10:14:36.742Z,40.92
2022-08-17T10:17:07.838Z,40.88
2022-08-17T10:19:39.525Z,41.56
2022-08-17T10:22:34.527Z,41.80
2022-08-17T10:25:22.331Z,41.43
2022-08-17T10:27:59.797Z,41.85
2022-08-17T10:30:32.712Z,42.08
2022-08-17T10:33:04.553Z,42.15
2022-08-17T10:35:41.410Z,42.20
2022-08-17T10:38:30.381Z,42.14
2022-08-17T10:41:04.527Z,42.92
2022-08-17T10:43:43.732Z,43.30
2022-08-17T10:46:46.337Z,43.39
2022-08-17T10:49:24.547Z,43.61
2022-08-17T10:51:52.985Z,43.30
2022-08-17T10:54:40.749Z,43.55
2022-08-17T10:57:40.226Z,43.37
2022-08-17T11:01:05.024Z,43.67
2022-08-17T11:03:32.004Z,43.88
2022-08-17T11:06:15.372Z,44.12
2022-08-17T11:09:07.348Z,44.25
2022-08-17T11:11:50.189Z,44.12
2022-08-17T11:14:28.517Z,44.52
2022-08-17T11:17:14.824Z,44.14
2022-08-17T11:20:18.205Z,43.71
2022-08-17T11:23:05.432Z,43.19
2022-08-17T11:25:36.261Z,42.43
2022-08-17T11:28:14.895Z,41.15
2022-08-17T11:30:49.062Z,39.63
2022-08-17T11:33:56.854Z,37.76
2022-08-17T11:36:40.248Z,36.87
2022-08-17T11:39:28.692Z,35.36
2022-08-17T11:42:08.731Z,34.42
2022-08-17T11:44:50.537Z,33.80
2022-08-17T11:47:25.460Z,34.17
2022-08-17T11:50:07.940Z,33.94
2022-08-17T11:52:41.204Z,34.04
2022-08-17T11:55:35.735Z,34.72
2022-08-17T11:58:25.696Z,34.88
2022-08-17T12:00:55.695Z,36.18
2022-08-17T12:03:53.808Z,36.14
2022-08-17T12:06:31.663Z,35.57
2022-08-17T12:09:06.086Z,35.53
2022-08-17T12:12:04.645Z,34.83
2022-08-17T12:14:51.702Z,34.78
2022-08-17T12:17:40.637Z,35.02
2022-08-17T12:20:14.661Z,34.78
2022-08-17T12:22:49.807Z,34.83
2022-08-17T12:25:22.396Z,35.18
2022-08-17T12:28:06.201Z,35.03
2022-08-17T12:30:35.857Z,34.87
2022-08-17T12:33:11.842Z,34.61
2022-08-17T12:35:38.501Z,34.37
2022-08-17T12:38:07.431Z,33.73
2022-08-17T12:40:55.505Z,33.59
2022-08-17T12:43:27.455Z,33.45
2022-08-17T12:45:57.529Z,32.99
2022-08-17T12:48:27.551Z,33.44
2022-08-17T12:51:01.595Z,33.68
2022-08-17T12:53:32.225Z,34.25
2022-08-17T12:56:00.346Z,35.82
2022-08-17T12:58:33.921Z,35.94
2022-08-17T13:01:03.724Z,36.03
2022-08-17T13:03:38.550Z,36.37
2022-08-17T13:06:07.643Z,37.76
2022-08-17T13:08:37.675Z,38.26
2022-08-17T13:11:07.142Z,38.53
2022-08-17T13:13:36.455Z,39.32
2022-08-17T13:16:05.964Z,39.88
2022-08-17T13:18:40.692Z,39.67
2022-08-17T13:21:16.680Z,39.84
2022-08-17T13:23:57.436Z,40.69
2022-08-17T13:26:29.068Z,40.17
2022-08-17T13:28:57.691Z,39.68
2022-08-17T13:31:42.872Z,39.11
2022-08-17T13:34:33.330Z,39.24
2022-08-17T13:37:29.697Z,39.28
2022-08-17T13:40:00.372Z,39.41
2022-08-17T13:42:52.759Z,39.96
2022-08-17T13:45:45.481Z,41.32
2022-08-17T13:48:23.356Z,40.40
2022-08-17T13:51:12.235Z,39.45
2022-08-17T13:53:56.695Z,38.80
2022-08-17T13:56:50.455Z,38.72
2022-08-17T13:59:52.651Z,37.92
2022-08-17T14:02:17.306Z,38.20
2022-08-17T14:04:46.772Z,38.68
2022-08-17T14:07:32.025Z,38.47
2022-08-17T14:10:04.677Z,37.79
2022-08-17T14:12:35.397Z,38.72
2022-08-17T14:15:02.463Z,40.08
2022-08-17T14:17:30.097Z,40.49
2022-08-17T14:19:58.954Z,41.53
2022-08-17T14:22:33.070Z,41.04
2022-08-17T14:25:04.680Z,41.77
2022-08-17T14:27:41.876Z,41.94
2022-08-17T14:30:21.962Z,42.82
2022-08-17T14:32:49.880Z,43.20
2022-08-17T14:35:17.577Z,43.80
2022-08-17T14:37:44.788Z,43.15
2022-08-17T14:40:13.567Z,43.42
2022-08-17T14:42:43.854Z,44.33
2022-08-17T14:45:29.830Z,43.63
2022-08-17T14:47:59.300Z,43.08
2022-08-17T14:50:25.930Z,43.26
2022-08-17T14:52:53.163Z,43.23
2022-08-17T14:55:35.992Z,42.54
2022-08-17T14:58:07.847Z,42.50
2022-08-17T15:00:39.942Z,42.17
2022-08-17T15:03:06.664Z,41.68
2022-08-17T15:05:36.246Z,41.47
2022-08-17T15:08:04.010Z,41.98
2022-08-17T15:10:31.116Z,41.27
2022-08-17T15:12:58.242Z,42.19
2022-08-17T15:15:26.433Z,42.19
2022-08-17T15:17:55.189Z,41.82
2022-08-17T15:20:26.444Z,42.25
2022-08-17T15:22:53.594Z,41.73
2022-08-17T15:25:20.426Z,41.26
2022-08-17T15:27:48.437Z,41.24
2022-08-17T15:30:16.123Z,41.52
2022-08-17T15:32:54.464Z,42.15
2022-08-17T15:35:26.930Z,42.48
2022-08-17T15:37:56.892Z,43.33
2022-08-17T15:40:23.757Z,43.62
2022-08-17T15:42:51.184Z,44.01
2022-08-17T15:45:22.969Z,44.15
2022-08-17T15:47:52.058Z,44.34
2022-08-17T15:50:19.007Z,44.06
2022-08-17T15:52:45.767Z,43.43
2022-08-17T15:55:14.630Z,42.86
2022-08-17T15:57:41.955Z,42.62
2022-08-17T16:00:12.075Z,42.08
2022-08-17T16:03:44.959Z,42.54
2022-08-17T16:05:31.720Z,42.01
2022-08-17T16:08:00.257Z,41.88
2022-08-17T16:10:35.271Z,41.82
2022-08-17T16:13:04.083Z,41.88
2022-08-17T16:15:31.376Z,42.54
2022-08-17T16:17:58.404Z,42.88
2022-08-17T16:20:26.073Z,43.43
2022-08-17T16:22:55.458Z,43.76
2022-08-17T16:25:38.409Z,44.09
2022-08-17T16:28:22.001Z,44.36
2022-08-17T16:30:49.292Z,44.37
2022-08-17T16:33:15.967Z,43.58
2022-08-17T16:35:43.991Z,44.05
2022-08-17T16:38:12.002Z,43.23
2022-08-17T16:40:40.946Z,43.06
2022-08-17T16:43:11.798Z,42.71
2022-08-17T16:45:38.520Z,43.22
2022-08-17T16:48:05.399Z,43.24
2022-08-17T16:50:32.646Z,43.84
2022-08-17T16:53:05.252Z,43.88
2022-08-17T16:55:33.946Z,44.11
2022-08-17T16:58:00.895Z,44.50
2022-08-17T17:00:27.528Z,44.66
2022-08-17T17:02:54.361Z,45.71
2022-08-17T17:05:44.590Z,46.26
2022-08-17T17:08:23.228Z,46.60
2022-08-17T17:10:54.445Z,46.75
2022-08-17T17:13:26.617Z,47.36
2022-08-17T17:15:58.581Z,47.29
2022-08-17T17:18:37.591Z,47.44
2022-08-17T17:21:12.973Z,47.78
2022-08-17T17:23:48.351Z,47.56
2022-08-17T17:26:37.897Z,47.69
2022-08-17T17:29:14.056Z,47.64
2022-08-17T17:31:47.161Z,47.56
2022-08-17T17:34:16.063Z,47.44
2022-08-17T17:36:47.333Z,46.92
2022-08-17T17:39:17.826Z,47.62
2022-08-17T17:41:48.963Z,47.50
2022-08-17T17:44:20.016Z,47.75
2022-08-17T17:46:53.134Z,47.55
2022-08-17T17:49:20.396Z,47.56
2022-08-17T17:52:10.816Z,48.21
2022-08-17T17:54:52.689Z,47.94
2022-08-17T17:57:29.728Z,48.05
2022-08-17T18:00:04.496Z,48.22
2022-08-17T18:02:45.278Z,48.07
2022-08-17T18:05:44.442Z,47.98
2022-08-17T18:08:31.956Z,48.03
2022-08-17T18:11:07.974Z,48.06
2022-08-17T18:13:53.237Z,48.32
2022-08-17T18:16:20.493Z,48.52
2022-08-17T18:18:49.058Z,49.24
2022-08-17T18:21:19.964Z,49.47
2022-08-17T18:23:52.531Z,49.75
2022-08-17T18:26:38.670Z,49.82
2022-08-17T18:29:21.388Z,50.72
2022-08-17T18:31:48.238Z,51.36
2022-08-17T18:34:43.684Z,52.01
2022-08-17T18:37:09.243Z,52.17
2022-08-17T18:39:36.093Z,52.54
2022-08-17T18:42:25.219Z,52.58
2022-08-17T18:44:55.365Z,52.97
2022-08-17T18:47:24.457Z,52.74
2022-08-17T18:49:54.209Z,53.41
2022-08-17T18:52:26.685Z,53.36
2022-08-17T18:55:07.173Z,53.62
2022-08-17T18:57:36.326Z,53.95
2022-08-17T19:00:12.057Z,53.76
2022-08-17T19:02:50.497Z,54.13
2022-08-17T19:05:33.251Z,54.10
2022-08-17T19:08:17.679Z,54.81
2022-08-17T19:10:45.867Z,54.92
2022-08-17T19:13:24.501Z,55.04
2022-08-17T19:16:12.325Z,55.02
2022-08-17T19:18:45.452Z,55.33
2022-08-17T19:21:18.253Z,55.62
2022-08-17T19:23:54.068Z,55.80
2022-08-17T19:26:54.550Z,55.45
2022-08-17T19:29:16.823Z,55.37
2022-08-17T19:31:50.286Z,55.49
2022-08-17T19:34:33.446Z,55.45
2022-08-17T19:37:06.509Z,55.74
2022-08-17T19:39:40.664Z,55.58
2022-08-17T19:42:14.956Z,55.82
2022-08-17T19:44:58.953Z,55.94
2022-08-17T19:47:54.307Z,56.45
2022-08-17T19:50:30.349Z,55.98
2022-08-17T19:53:17.107Z,55.82
2022-08-17T19:55:52.753Z,56.07
2022-08-17T19:58:35.356Z,56.04
2022-08-17T20:01:04.729Z,57.07
2022-08-17T20:03:38.353Z,56.89
2022-08-17T20:06:13.024Z,56.63
2022-08-17T20:08:47.725Z,57.02
2022-08-17T20:11:20.788Z,56.87
2022-08-17T20:13:52.281Z,56.96
2022-08-17T20:16:19.839Z,57.23
2022-08-17T20:18:55.217Z,56.98
2022-08-17T20:21:27.092Z,57.78
2022-08-17T20:24:01.769Z,58.12
2022-08-17T20:26:51.263Z,58.49
2022-08-17T20:29:39.814Z,58.25
2022-08-17T20:32:32.161Z,58.64
2022-08-17T20:35:28.529Z,58.39
2022-08-17T20:38:08.788Z,58.75
2022-08-17T20:40:38.552Z,58.78
2022-08-17T20:43:45.481Z,59.13
2022-08-17T20:46:41.369Z,59.35
2022-08-17T20:49:22.976Z,59.52
2022-08-17T20:52:01.808Z,59.07
2022-08-17T20:54:50.323Z,59.86
2022-08-17T20:57:45.170Z,59.63
2022-08-17T21:00:13.384Z,59.49
2022-08-17T21:02:41.133Z,59.92
2022-08-17T21:05:30.264Z,60.36
2022-08-17T21:08:00.843Z,60.11
2022-08-17T21:10:37.330Z,60.58
2022-08-17T21:13:46.546Z,60.77
2022-08-17T21:16:44.039Z,61.29
2022-08-17T21:19:37.588Z,60.63
2022-08-17T21:22:22.569Z,60.81
2022-08-17T21:24:57.368Z,61.26
2022-08-17T21:27:38.569Z,61.35
2022-08-17T21:30:22.012Z,61.88
2022-08-17T21:33:18.588Z,62.29
2022-08-17T21:35:50.864Z,61.90
2022-08-17T21:38:20.002Z,62.15
2022-08-17T21:40:49.447Z,61.82
2022-08-17T21:43:34.253Z,61.67
2022-08-17T21:46:04.536Z,61.68
2022-08-17T21:48:40.125Z,61.91
2022-08-17T21:51:09.348Z,62.20
2022-08-17T21:53:47.448Z,62.33
2022-08-17T21:56:24.664Z,62.46
2022-08-17T21:58:58.434Z,62.77
2022-08-17T22:01:27.929Z,63.51
2022-08-17T22:03:58.578Z,62.71
2022-08-17T22:06:27.736Z,63.26
2022-08-17T22:09:14.776Z,62.84
2022-08-17T22:11:51.984Z,63.05
2022-08-17T22:14:21.890Z,63.71
2022-08-17T22:17:04.644Z,63.96
2022-08-17T22:19:31.945Z,64.26
2022-08-17T22:22:03.484Z,64.50
2022-08-17T22:24:30.292Z,64.43
2022-08-17T22:27:04.416Z,64.69
2022-08-17T22:29:59.873Z,64.78
2022-08-17T22:32:32.297Z,63.75
2022-08-17T22:35:19.912Z,63.93
2022-08-17T22:37:47.066Z,64.40
2022-08-17T22:40:25.048Z,64.62
2022-08-17T22:42:51.983Z,64.58
2022-08-17T22:45:20.058Z,65.22
2022-08-17T22:47:47.199Z,65.20
2022-08-17T22:50:21.496Z,64.94
2022-08-17T22:52:57.447Z,65.12
2022-08-17T22:55:25.642Z,65.50
2022-08-17T22:57:52.792Z,65.56
2022-08-17T23:00:36.448Z,65.21
2022-08-17T23:03:10.603Z,65.65
2022-08-17T23:05:38.810Z,65.42
2022-08-17T23:08:05.507Z,65.54
2022-08-17T23:10:32.172Z,65.79
2022-08-17T23:12:59.554Z,65.53
2022-08-17T23:15:28.117Z,65.97
2022-08-17T23:17:56.452Z,66.46
2022-08-17T23:20:23.410Z,66.35
2022-08-17T23:22:51.904Z,66.20
2022-08-17T23:25:25.695Z,66.11
2022-08-17T23:27:52.650Z,66.40
2022-08-17T23:30:19.552Z,66.69
2022-08-17T23:32:53.336Z,66.73
2022-08-17T23:35:40.114Z,66.60
2022-08-17T23:38:08.771Z,66.63
2022-08-17T23:40:37.613Z,66.77
2022-08-17T23:43:12.921Z,66.77
2022-08-17T23:45:52.713Z,66.91
2022-08-17T23:48:28.533Z,67.70
2022-08-17T23:51:12.958Z,67.36
2022-08-17T23:53:42.725Z,67.03
2022-08-17T23:56:10.908Z,66.82
2022-08-17T23:58:39.260Z,67.23
